createdAt,value
2023-04-24T00:00:17.000Z,78.04
2023-04-24T00:01:18.000Z,78.03
2023-04-24T00:02:18.000Z,78.14
2023-04-24T00:03:20.000Z,78.10
2023-04-24T00:04:17.000Z,77.94
2023-04-24T00:05:17.000Z,77.98
2023-04-24T00:06:18.000Z,78.25
2023-04-24T00:07:19.000Z,78.26
2023-04-24T00:08:17.000Z,78.44
2023-04-24T00:09:17.000Z,78.38
2023-04-24T00:10:17.000Z,78.30
2023-04-24T00:11:17.000Z,78.37
2023-04-24T00:12:18.000Z,78.40
2023-04-24T00:13:17.000Z,78.50
2023-04-24T00:14:17.000Z,78.36
2023-04-24T00:15:17.000Z,78.63
2023-04-24T00:16:17.000Z,78.53
2023-04-24T00:17:20.000Z,78.91
2023-04-24T00:18:17.000Z,79.08
2023-04-24T00:19:20.000Z,78.83
2023-04-24T00:20:18.000Z,78.70
2023-04-24T00:21:18.000Z,78.67
2023-04-24T00:22:20.000Z,78.53
2023-04-24T00:23:18.000Z,78.57
2023-04-24T00:24:18.000Z,78.43
2023-04-24T00:25:18.000Z,78.84
2023-04-24T00:26:18.000Z,78.96
2023-04-24T00:27:18.000Z,78.85
2023-04-24T00:28:18.000Z,78.80
2023-04-24T00:29:18.000Z,78.74
2023-04-24T00:30:18.000Z,78.64
2023-04-24T00:31:18.000Z,78.63
2023-04-24T00:32:18.000Z,78.70
2023-04-24T00:33:18.000Z,78.58
2023-04-24T00:34:18.000Z,78.59
2023-04-24T00:35:19.000Z,78.68
2023-04-24T00:36:20.000Z,78.78
2023-04-24T00:37:18.000Z,78.79
2023-04-24T00:38:18.000Z,78.81
2023-04-24T00:39:18.000Z,78.64
2023-04-24T00:40:18.000Z,78.73
2023-04-24T00:41:18.000Z,78.84
2023-04-24T00:42:18.000Z,78.64
2023-04-24T00:43:18.000Z,78.55
2023-04-24T00:44:18.000Z,78.72
2023-04-24T00:45:19.000Z,78.75
2023-04-24T00:46:18.000Z,78.75
2023-04-24T00:47:18.000Z,78.74
2023-04-24T00:48:20.000Z,78.69
2023-04-24T00:49:18.000Z,78.85
2023-04-24T00:50:20.000Z,78.85
2023-04-24T00:51:18.000Z,78.87
2023-04-24T00:52:18.000Z,78.92
2023-04-24T00:53:18.000Z,78.90
2023-04-24T00:54:17.000Z,78.76
2023-04-24T00:55:18.000Z,78.97
2023-04-24T00:56:18.000Z,78.88
2023-04-24T00:57:18.000Z,78.91
2023-04-24T00:58:18.000Z,78.84
2023-04-24T00:59:18.000Z,78.82
2023-04-24T01:00:18.000Z,78.98
2023-04-24T01:01:20.000Z,78.93
2023-04-24T01:02:18.000Z,78.91
2023-04-24T01:03:23.000Z,78.74
2023-04-24T01:04:18.000Z,78.80
2023-04-24T01:05:18.000Z,78.77
2023-04-24T01:06:19.000Z,78.84
2023-04-24T01:07:20.000Z,78.83
2023-04-24T01:08:19.000Z,78.85
2023-04-24T01:09:18.000Z,78.78
2023-04-24T01:10:19.000Z,78.54
2023-04-24T01:11:18.000Z,78.68
2023-04-24T01:12:18.000Z,78.59
2023-04-24T01:13:18.000Z,78.60
2023-04-24T01:14:18.000Z,78.63
2023-04-24T01:15:18.000Z,78.76
2023-04-24T01:16:19.000Z,78.78
2023-04-24T01:17:18.000Z,78.84
2023-04-24T01:18:17.000Z,78.70
2023-04-24T01:19:18.000Z,78.83
2023-04-24T01:20:18.000Z,78.84
2023-04-24T01:21:20.000Z,78.88
2023-04-24T01:22:18.000Z,78.99
2023-04-24T01:23:18.000Z,78.99
2023-04-24T01:24:18.000Z,79.11
2023-04-24T01:25:17.000Z,79.09
2023-04-24T01:26:19.000Z,79.39
2023-04-24T01:27:18.000Z,79.35
2023-04-24T01:28:18.000Z,79.53
2023-04-24T01:29:18.000Z,79.47
2023-04-24T01:30:17.000Z,79.56
2023-04-24T01:31:17.000Z,79.23
2023-04-24T01:32:18.000Z,79.28
2023-04-24T01:33:19.000Z,79.26
2023-04-24T01:34:17.000Z,79.42
2023-04-24T01:35:18.000Z,79.66
2023-04-24T01:36:18.000Z,79.65
2023-04-24T01:37:17.000Z,79.46
2023-04-24T01:38:17.000Z,79.55
2023-04-24T01:39:19.000Z,79.35
2023-04-24T01:40:17.000Z,79.42
2023-04-24T01:41:18.000Z,79.39
2023-04-24T01:42:18.000Z,79.43
2023-04-24T01:43:18.000Z,79.46
2023-04-24T01:44:17.000Z,79.47
2023-04-24T01:45:17.000Z,79.45
2023-04-24T01:46:17.000Z,79.37
2023-04-24T01:47:17.000Z,79.43
2023-04-24T01:48:17.000Z,79.56
2023-04-24T01:49:17.000Z,79.53
2023-04-24T01:50:17.000Z,79.58
2023-04-24T01:51:17.000Z,79.49
2023-04-24T01:52:18.000Z,79.30
2023-04-24T01:53:17.000Z,79.39
2023-04-24T01:54:17.000Z,79.38
2023-04-24T01:55:17.000Z,79.62
2023-04-24T01:56:19.000Z,79.47
2023-04-24T01:57:17.000Z,79.44
2023-04-24T01:58:17.000Z,79.56
2023-04-24T01:59:19.000Z,79.62
2023-04-24T02:00:17.000Z,79.72
2023-04-24T02:01:19.000Z,79.50
2023-04-24T02:02:18.000Z,79.49
2023-04-24T02:03:17.000Z,79.67
2023-04-24T02:04:17.000Z,79.75
2023-04-24T02:05:17.000Z,79.67
2023-04-24T02:06:17.000Z,79.74
2023-04-24T02:07:17.000Z,79.75
2023-04-24T02:08:17.000Z,79.78
2023-04-24T02:09:17.000Z,79.81
2023-04-24T02:10:17.000Z,79.76
2023-04-24T02:11:17.000Z,79.75
2023-04-24T02:12:17.000Z,79.87
2023-04-24T02:13:17.000Z,79.73
2023-04-24T02:14:17.000Z,79.84
2023-04-24T02:15:17.000Z,79.77
2023-04-24T02:16:17.000Z,80.03
2023-04-24T02:17:18.000Z,79.90
2023-04-24T02:18:17.000Z,80.04
2023-04-24T02:19:18.000Z,80.09
2023-04-24T02:20:18.000Z,79.88
2023-04-24T02:21:17.000Z,79.82
2023-04-24T02:22:17.000Z,80.09
2023-04-24T02:23:17.000Z,80.02
2023-04-24T02:24:18.000Z,79.52
2023-04-24T02:25:18.000Z,79.54
2023-04-24T02:26:18.000Z,79.63
2023-04-24T02:27:18.000Z,79.55
2023-04-24T02:28:18.000Z,79.49
2023-04-24T02:29:18.000Z,79.73
2023-04-24T02:30:18.000Z,79.74
2023-04-24T02:31:18.000Z,79.70
2023-04-24T02:32:18.000Z,79.81
2023-04-24T02:33:18.000Z,79.57
2023-04-24T02:34:18.000Z,79.66
2023-04-24T02:35:18.000Z,79.61
2023-04-24T02:36:18.000Z,79.59
2023-04-24T02:37:18.000Z,79.53
2023-04-24T02:38:18.000Z,79.69
2023-04-24T02:39:18.000Z,79.69
2023-04-24T02:40:18.000Z,79.85
2023-04-24T02:41:18.000Z,79.71
2023-04-24T02:42:18.000Z,79.60
2023-04-24T02:43:18.000Z,79.58
2023-04-24T02:44:18.000Z,79.59
2023-04-24T02:45:18.000Z,79.49
2023-04-24T02:46:18.000Z,79.46
2023-04-24T02:47:18.000Z,79.57
2023-04-24T02:48:18.000Z,79.66
2023-04-24T02:49:18.000Z,79.72
2023-04-24T02:50:18.000Z,79.61
2023-04-24T02:51:18.000Z,79.64
2023-04-24T02:52:18.000Z,79.68
2023-04-24T02:53:18.000Z,79.64
2023-04-24T02:54:17.000Z,79.65
2023-04-24T02:55:18.000Z,79.91
2023-04-24T02:56:18.000Z,80.11
2023-04-24T02:57:17.000Z,80.33
2023-04-24T02:58:19.000Z,79.96
2023-04-24T02:59:17.000Z,80.21
2023-04-24T03:00:18.000Z,79.94
2023-04-24T03:01:17.000Z,80.05
2023-04-24T03:02:18.000Z,80.15
2023-04-24T03:03:18.000Z,80.24
2023-04-24T03:04:19.000Z,80.18
2023-04-24T03:05:17.000Z,80.29
2023-04-24T03:06:17.000Z,80.23
2023-04-24T03:07:20.000Z,80.33
2023-04-24T03:08:17.000Z,80.38
2023-04-24T03:09:18.000Z,80.29
2023-04-24T03:10:18.000Z,80.33
2023-04-24T03:11:17.000Z,80.84
2023-04-24T03:12:17.000Z,81.09
2023-04-24T03:13:17.000Z,81.61
2023-04-24T03:14:17.000Z,81.51
2023-04-24T03:15:18.000Z,83.06
2023-04-24T03:16:18.000Z,84.44
2023-04-24T03:17:18.000Z,84.11
2023-04-24T03:18:17.000Z,84.31
2023-04-24T03:19:17.000Z,83.07
2023-04-24T03:20:17.000Z,83.40
2023-04-24T03:21:18.000Z,83.76
2023-04-24T03:22:17.000Z,84.15
2023-04-24T03:23:17.000Z,84.34
2023-04-24T03:24:17.000Z,84.97
2023-04-24T03:25:18.000Z,85.75
2023-04-24T03:26:18.000Z,86.07
2023-04-24T03:27:18.000Z,85.76
2023-04-24T03:28:19.000Z,86.02
2023-04-24T03:29:18.000Z,85.75
2023-04-24T03:30:18.000Z,85.28
2023-04-24T03:31:20.000Z,85.46
2023-04-24T03:32:18.000Z,85.30
2023-04-24T03:33:18.000Z,86.17
2023-04-24T03:34:18.000Z,85.91
2023-04-24T03:35:18.000Z,86.01
2023-04-24T03:36:18.000Z,85.96
2023-04-24T03:37:18.000Z,85.42
2023-04-24T03:38:17.000Z,85.37
2023-04-24T03:39:18.000Z,85.51
2023-04-24T03:40:18.000Z,85.61
2023-04-24T03:41:18.000Z,85.32
2023-04-24T03:42:18.000Z,85.22
2023-04-24T03:43:18.000Z,85.10
2023-04-24T03:44:17.000Z,84.72
2023-04-24T03:45:18.000Z,84.59
2023-04-24T03:46:18.000Z,84.72
2023-04-24T03:47:18.000Z,84.67
2023-04-24T03:48:17.000Z,84.65
2023-04-24T03:49:18.000Z,84.74
2023-04-24T03:50:18.000Z,84.29
2023-04-24T03:51:18.000Z,84.40
2023-04-24T03:52:18.000Z,84.51
2023-04-24T03:53:19.000Z,83.85
2023-04-24T03:54:20.000Z,83.75
2023-04-24T03:55:18.000Z,83.65
2023-04-24T03:56:18.000Z,83.57
2023-04-24T03:57:18.000Z,83.38
2023-04-24T03:58:18.000Z,83.58
2023-04-24T03:59:18.000Z,83.27
2023-04-24T04:00:18.000Z,83.09
2023-04-24T04:01:20.000Z,82.98
2023-04-24T04:02:18.000Z,82.72
2023-04-24T04:03:18.000Z,82.64
2023-04-24T04:04:18.000Z,82.48
2023-04-24T04:05:18.000Z,82.49
2023-04-24T04:06:18.000Z,82.57
2023-04-24T04:07:18.000Z,82.55
2023-04-24T04:08:18.000Z,82.48
2023-04-24T04:09:18.000Z,82.53
2023-04-24T04:10:18.000Z,82.50
2023-04-24T04:11:18.000Z,82.46
2023-04-24T04:12:18.000Z,82.57
2023-04-24T04:13:18.000Z,82.53
2023-04-24T04:14:18.000Z,82.80
2023-04-24T04:15:18.000Z,82.67
2023-04-24T04:16:18.000Z,82.82
2023-04-24T04:17:18.000Z,83.18
2023-04-24T04:18:18.000Z,82.94
2023-04-24T04:19:18.000Z,83.07
2023-04-24T04:20:18.000Z,83.04
2023-04-24T04:21:18.000Z,82.94
2023-04-24T04:22:18.000Z,82.71
2023-04-24T04:23:18.000Z,82.80
2023-04-24T04:24:19.000Z,83.35
2023-04-24T04:25:19.000Z,82.97
2023-04-24T04:26:18.000Z,83.35
2023-04-24T04:27:18.000Z,83.17
2023-04-24T04:28:19.000Z,83.44
2023-04-24T04:29:18.000Z,82.99
2023-04-24T04:30:17.000Z,82.82
2023-04-24T04:31:19.000Z,82.73
2023-04-24T04:32:17.000Z,82.65
2023-04-24T04:33:19.000Z,82.65
2023-04-24T04:34:17.000Z,82.80
2023-04-24T04:35:17.000Z,82.62
2023-04-24T04:36:18.000Z,82.82
2023-04-24T04:37:18.000Z,82.83
2023-04-24T04:38:18.000Z,82.85
2023-04-24T04:39:18.000Z,82.86
2023-04-24T04:40:17.000Z,82.78
2023-04-24T04:41:17.000Z,82.71
2023-04-24T04:42:18.000Z,82.97
2023-04-24T04:43:17.000Z,82.94
2023-04-24T04:44:17.000Z,82.91
2023-04-24T04:45:18.000Z,82.88
2023-04-24T04:46:18.000Z,83.00
2023-04-24T04:47:20.000Z,82.67
2023-04-24T04:48:18.000Z,82.87
2023-04-24T04:49:18.000Z,82.98
2023-04-24T04:50:19.000Z,82.89
2023-04-24T04:51:17.000Z,82.75
2023-04-24T04:52:18.000Z,82.85
2023-04-24T04:53:17.000Z,82.65
2023-04-24T04:54:17.000Z,82.75
2023-04-24T04:55:19.000Z,82.97
2023-04-24T04:56:17.000Z,82.77
2023-04-24T04:57:17.000Z,82.60
2023-04-24T04:58:17.000Z,82.38
2023-04-24T04:59:17.000Z,82.08
2023-04-24T05:00:17.000Z,81.70
2023-04-24T05:01:17.000Z,81.40
2023-04-24T05:02:17.000Z,81.35
2023-04-24T05:03:17.000Z,81.41
2023-04-24T05:04:17.000Z,81.73
2023-04-24T05:05:17.000Z,81.59
2023-04-24T05:06:17.000Z,81.60
2023-04-24T05:07:17.000Z,81.57
2023-04-24T05:08:17.000Z,81.55
2023-04-24T05:09:17.000Z,81.60
2023-04-24T05:10:17.000Z,81.56
2023-04-24T05:11:17.000Z,81.42
2023-04-24T05:12:17.000Z,81.49
2023-04-24T05:13:17.000Z,81.70
2023-04-24T05:14:18.000Z,81.54
2023-04-24T05:15:17.000Z,81.55
2023-04-24T05:16:17.000Z,81.74
2023-04-24T05:17:17.000Z,81.81
2023-04-24T05:18:17.000Z,81.96
2023-04-24T05:19:17.000Z,82.02
2023-04-24T05:20:17.000Z,81.84
2023-04-24T05:21:17.000Z,81.90
2023-04-24T05:22:20.000Z,81.98
2023-04-24T05:23:17.000Z,82.13
2023-04-24T05:24:17.000Z,82.07
2023-04-24T05:25:17.000Z,82.11
2023-04-24T05:26:18.000Z,82.29
2023-04-24T05:27:18.000Z,81.98
2023-04-24T05:28:18.000Z,81.86
2023-04-24T05:29:18.000Z,81.81
2023-04-24T05:30:18.000Z,81.90
2023-04-24T05:31:18.000Z,81.91
2023-04-24T05:32:18.000Z,81.86
2023-04-24T05:33:18.000Z,82.14
2023-04-24T05:34:18.000Z,81.84
2023-04-24T05:35:18.000Z,81.72
2023-04-24T05:36:18.000Z,81.77
2023-04-24T05:37:18.000Z,81.30
2023-04-24T05:38:19.000Z,81.31
2023-04-24T05:39:19.000Z,81.47
2023-04-24T05:40:18.000Z,81.69
2023-04-24T05:41:18.000Z,82.10
2023-04-24T05:42:18.000Z,82.06
2023-04-24T05:43:18.000Z,82.05
2023-04-24T05:44:18.000Z,81.80
2023-04-24T05:45:18.000Z,81.74
2023-04-24T05:46:18.000Z,81.59
2023-04-24T05:47:18.000Z,80.85
2023-04-24T05:48:18.000Z,80.26
2023-04-24T05:49:18.000Z,79.93
2023-04-24T05:50:18.000Z,80.16
2023-04-24T05:51:18.000Z,80.58
2023-04-24T05:52:18.000Z,80.49
2023-04-24T05:53:18.000Z,80.82
2023-04-24T05:54:18.000Z,80.89
2023-04-24T05:55:18.000Z,80.69
2023-04-24T05:56:18.000Z,80.36
2023-04-24T05:57:18.000Z,80.51
2023-04-24T05:58:17.000Z,80.56
2023-04-24T05:59:18.000Z,80.61
2023-04-24T06:00:19.000Z,80.72
2023-04-24T06:01:18.000Z,80.77
2023-04-24T06:02:17.000Z,80.89
2023-04-24T06:03:17.000Z,81.14
2023-04-24T06:04:17.000Z,81.46
2023-04-24T06:05:17.000Z,80.98
2023-04-24T06:06:18.000Z,80.62
2023-04-24T06:07:17.000Z,80.48
2023-04-24T06:08:17.000Z,80.47
2023-04-24T06:09:17.000Z,80.47
2023-04-24T06:10:17.000Z,80.30
2023-04-24T06:11:17.000Z,80.14
2023-04-24T06:12:17.000Z,79.58
2023-04-24T06:13:17.000Z,79.31
2023-04-24T06:14:18.000Z,79.04
2023-04-24T06:15:17.000Z,79.40
2023-04-24T06:16:17.000Z,79.55
2023-04-24T06:17:17.000Z,79.69
2023-04-24T06:18:17.000Z,79.84
2023-04-24T06:19:17.000Z,79.61
2023-04-24T06:20:17.000Z,79.67
2023-04-24T06:21:17.000Z,79.88
2023-04-24T06:22:17.000Z,80.02
2023-04-24T06:23:17.000Z,79.64
2023-04-24T06:24:17.000Z,79.60
2023-04-24T06:25:18.000Z,79.82
2023-04-24T06:26:17.000Z,79.98
2023-04-24T06:27:17.000Z,79.87
2023-04-24T06:28:17.000Z,79.74
2023-04-24T06:29:17.000Z,79.76
2023-04-24T06:30:17.000Z,79.91
2023-04-24T06:31:17.000Z,80.19
2023-04-24T06:32:17.000Z,80.10
2023-04-24T06:33:17.000Z,80.11
2023-04-24T06:34:17.000Z,80.00
2023-04-24T06:35:17.000Z,80.06
2023-04-24T06:36:17.000Z,80.43
2023-04-24T06:37:18.000Z,80.42
2023-04-24T06:38:17.000Z,80.09
2023-04-24T06:39:17.000Z,80.54
2023-04-24T06:40:21.000Z,80.60
2023-04-24T06:41:17.000Z,79.96
2023-04-24T06:42:20.000Z,80.38
2023-04-24T06:43:18.000Z,80.46
2023-04-24T06:44:17.000Z,79.51
2023-04-24T06:45:17.000Z,79.14
2023-04-24T06:46:17.000Z,79.25
2023-04-24T06:47:18.000Z,79.07
2023-04-24T06:48:17.000Z,79.70
2023-04-24T06:49:17.000Z,79.38
2023-04-24T06:50:17.000Z,78.91
2023-04-24T06:51:17.000Z,79.11
2023-04-24T06:52:18.000Z,78.71
2023-04-24T06:53:17.000Z,79.23
2023-04-24T06:54:17.000Z,78.27
2023-04-24T06:55:17.000Z,77.70
2023-04-24T06:56:17.000Z,78.30
2023-04-24T06:57:18.000Z,77.68
2023-04-24T06:58:17.000Z,78.58
2023-04-24T06:59:17.000Z,78.36
2023-04-24T07:00:18.000Z,78.69
2023-04-24T07:01:18.000Z,78.89
2023-04-24T07:02:18.000Z,78.08
2023-04-24T07:03:17.000Z,77.42
2023-04-24T07:04:18.000Z,77.90
2023-04-24T07:05:19.000Z,78.04
2023-04-24T07:06:21.000Z,78.00
2023-04-24T07:07:18.000Z,77.94
2023-04-24T07:08:18.000Z,78.31
2023-04-24T07:09:18.000Z,77.19
2023-04-24T07:10:18.000Z,77.10
2023-04-24T07:11:18.000Z,77.83
2023-04-24T07:12:20.000Z,77.67
2023-04-24T07:13:18.000Z,77.61
2023-04-24T07:14:18.000Z,77.94
2023-04-24T07:15:18.000Z,77.24
2023-04-24T07:16:18.000Z,78.20
2023-04-24T07:17:18.000Z,78.71
2023-04-24T07:18:18.000Z,79.15
2023-04-24T07:19:18.000Z,79.53
2023-04-24T07:20:18.000Z,79.80
2023-04-24T07:21:18.000Z,80.49
2023-04-24T07:22:18.000Z,80.75
2023-04-24T07:23:19.000Z,81.10
2023-04-24T07:24:18.000Z,81.91
2023-04-24T07:25:18.000Z,81.70
2023-04-24T07:26:19.000Z,80.08
2023-04-24T07:27:18.000Z,77.55
2023-04-24T07:28:18.000Z,77.57
2023-04-24T07:29:18.000Z,78.29
2023-04-24T07:30:17.000Z,78.60
2023-04-24T07:31:17.000Z,79.13
2023-04-24T07:32:17.000Z,79.55
2023-04-24T07:33:17.000Z,80.14
2023-04-24T07:34:17.000Z,80.33
2023-04-24T07:35:17.000Z,80.07
2023-04-24T07:36:18.000Z,79.77
2023-04-24T07:37:18.000Z,78.63
2023-04-24T07:38:21.000Z,79.61
2023-04-24T07:39:17.000Z,78.62
2023-04-24T07:40:18.000Z,78.64
2023-04-24T07:41:17.000Z,77.11
2023-04-24T07:42:17.000Z,77.45
2023-04-24T07:43:19.000Z,78.32
2023-04-24T07:44:17.000Z,78.39
2023-04-24T07:45:17.000Z,78.08
2023-04-24T07:46:18.000Z,78.03
2023-04-24T07:47:17.000Z,78.76
2023-04-24T07:48:17.000Z,78.52
2023-04-24T07:49:17.000Z,78.48
2023-04-24T07:50:17.000Z,78.09
2023-04-24T07:51:17.000Z,77.32
2023-04-24T07:52:17.000Z,77.91
2023-04-24T07:53:17.000Z,77.74
2023-04-24T07:54:17.000Z,77.84
2023-04-24T07:55:17.000Z,77.80
2023-04-24T07:56:17.000Z,77.66
2023-04-24T07:57:17.000Z,76.79
2023-04-24T07:58:17.000Z,77.89
2023-04-24T07:59:17.000Z,77.90
2023-04-24T08:00:18.000Z,77.37
2023-04-24T08:01:17.000Z,77.43
2023-04-24T08:02:17.000Z,76.55
2023-04-24T08:03:19.000Z,76.88
2023-04-24T08:04:17.000Z,76.78
2023-04-24T08:05:17.000Z,76.95
2023-04-24T08:06:17.000Z,76.31
2023-04-24T08:07:17.000Z,76.93
2023-04-24T08:08:21.000Z,76.46
2023-04-24T08:09:18.000Z,77.23
2023-04-24T08:10:17.000Z,77.96
2023-04-24T08:11:17.000Z,77.62
2023-04-24T08:12:17.000Z,77.39
2023-04-24T08:13:17.000Z,76.54
2023-04-24T08:14:17.000Z,76.42
2023-04-24T08:15:17.000Z,75.87
2023-04-24T08:16:17.000Z,75.38
2023-04-24T08:17:17.000Z,75.25
2023-04-24T08:18:17.000Z,75.83
2023-04-24T08:19:17.000Z,75.46
2023-04-24T08:20:17.000Z,76.45
2023-04-24T08:21:18.000Z,76.00
2023-04-24T08:22:17.000Z,76.48
2023-04-24T08:23:17.000Z,75.70
2023-04-24T08:24:17.000Z,75.14
2023-04-24T08:25:18.000Z,74.73
2023-04-24T08:26:17.000Z,74.37
2023-04-24T08:27:17.000Z,73.14
2023-04-24T08:28:19.000Z,73.09
2023-04-24T08:29:17.000Z,72.38
2023-04-24T08:30:17.000Z,73.05
2023-04-24T08:31:17.000Z,73.31
2023-04-24T08:32:17.000Z,74.20
2023-04-24T08:33:17.000Z,74.35
2023-04-24T08:34:17.000Z,74.14
2023-04-24T08:35:18.000Z,74.28
2023-04-24T08:36:17.000Z,74.96
2023-04-24T08:37:18.000Z,75.14
2023-04-24T08:38:18.000Z,75.52
2023-04-24T08:39:18.000Z,73.76
2023-04-24T08:40:26.000Z,73.79
2023-04-24T08:41:18.000Z,72.30
2023-04-24T08:42:19.000Z,72.08
2023-04-24T08:43:21.000Z,72.23
2023-04-24T08:44:18.000Z,72.12
2023-04-24T08:45:18.000Z,70.80
2023-04-24T08:46:19.000Z,71.25
2023-04-24T08:47:19.000Z,71.31
2023-04-24T08:48:18.000Z,72.05
2023-04-24T08:49:18.000Z,71.72
2023-04-24T08:50:18.000Z,71.93
2023-04-24T08:51:19.000Z,71.97
2023-04-24T08:52:18.000Z,72.00
2023-04-24T08:53:18.000Z,71.25
2023-04-24T08:54:18.000Z,72.06
2023-04-24T08:55:20.000Z,71.88
2023-04-24T08:56:18.000Z,70.59
2023-04-24T08:57:18.000Z,70.99
2023-04-24T08:58:19.000Z,71.93
2023-04-24T08:59:20.000Z,71.48
2023-04-24T09:00:20.000Z,70.28
2023-04-24T09:01:19.000Z,70.48
2023-04-24T09:02:17.000Z,69.85
2023-04-24T09:03:18.000Z,70.64
2023-04-24T09:04:19.000Z,70.51
2023-04-24T09:05:20.000Z,70.24
2023-04-24T09:06:20.000Z,69.76
2023-04-24T09:07:18.000Z,68.62
2023-04-24T09:08:18.000Z,68.86
2023-04-24T09:09:18.000Z,67.88
2023-04-24T09:10:18.000Z,67.37
2023-04-24T09:11:17.000Z,66.45
2023-04-24T09:12:18.000Z,66.30
2023-04-24T09:13:18.000Z,65.10
2023-04-24T09:14:18.000Z,65.07
2023-04-24T09:15:18.000Z,66.23
2023-04-24T09:16:19.000Z,65.81
2023-04-24T09:17:17.000Z,65.54
2023-04-24T09:18:18.000Z,66.57
2023-04-24T09:19:17.000Z,66.16
2023-04-24T09:20:17.000Z,66.45
2023-04-24T09:21:20.000Z,66.90
2023-04-24T09:22:17.000Z,67.31
2023-04-24T09:23:17.000Z,67.15
2023-04-24T09:24:19.000Z,66.07
2023-04-24T09:25:17.000Z,66.38
2023-04-24T09:26:20.000Z,66.16
2023-04-24T09:27:18.000Z,65.86
2023-04-24T09:28:17.000Z,66.42
2023-04-24T09:29:17.000Z,66.53
2023-04-24T09:30:20.000Z,65.44
2023-04-24T09:31:18.000Z,66.13
2023-04-24T09:32:20.000Z,66.64
2023-04-24T09:33:17.000Z,67.23
2023-04-24T09:34:22.000Z,67.05
2023-04-24T09:35:17.000Z,67.07
2023-04-24T09:36:17.000Z,66.78
2023-04-24T09:37:27.000Z,66.60
2023-04-24T09:38:19.000Z,67.06
2023-04-24T09:39:19.000Z,67.54
2023-04-24T09:40:19.000Z,67.18
2023-04-24T09:41:17.000Z,67.32
2023-04-24T09:42:18.000Z,67.51
2023-04-24T09:43:17.000Z,67.86
2023-04-24T09:44:19.000Z,67.49
2023-04-24T09:45:17.000Z,67.51
2023-04-24T09:46:17.000Z,67.45
2023-04-24T09:47:17.000Z,67.37
2023-04-24T09:48:17.000Z,66.97
2023-04-24T09:49:23.000Z,67.17
2023-04-24T09:50:17.000Z,66.91
2023-04-24T09:51:32.000Z,67.41
2023-04-24T09:52:17.000Z,67.73
2023-04-24T09:53:23.000Z,67.24
2023-04-24T09:54:19.000Z,67.74
2023-04-24T09:55:20.000Z,68.27
2023-04-24T09:56:19.000Z,66.61
2023-04-24T09:57:17.000Z,66.11
2023-04-24T09:58:23.000Z,67.29
2023-04-24T09:59:18.000Z,66.65
2023-04-24T10:00:21.000Z,66.10
2023-04-24T10:01:30.000Z,67.03
2023-04-24T10:02:19.000Z,67.01
2023-04-24T10:03:17.000Z,66.85
2023-04-24T10:04:21.000Z,64.25
2023-04-24T10:05:18.000Z,65.01
2023-04-24T10:06:18.000Z,64.79
2023-04-24T10:07:18.000Z,65.28
2023-04-24T10:08:18.000Z,65.10
2023-04-24T10:09:20.000Z,65.55
2023-04-24T10:10:18.000Z,65.09
2023-04-24T10:11:18.000Z,64.95
2023-04-24T10:12:18.000Z,65.14
2023-04-24T10:13:18.000Z,65.40
2023-04-24T10:14:20.000Z,65.02
2023-04-24T10:15:21.000Z,63.97
2023-04-24T10:16:20.000Z,64.88
2023-04-24T10:17:18.000Z,65.34
2023-04-24T10:18:20.000Z,65.00
2023-04-24T10:19:20.000Z,64.87
2023-04-24T10:20:19.000Z,64.96
2023-04-24T10:21:18.000Z,65.57
2023-04-24T10:22:18.000Z,65.93
2023-04-24T10:23:19.000Z,66.07
2023-04-24T10:24:18.000Z,66.11
2023-04-24T10:25:20.000Z,66.17
2023-04-24T10:26:19.000Z,66.00
2023-04-24T10:27:20.000Z,66.28
2023-04-24T10:28:19.000Z,66.38
2023-04-24T10:29:18.000Z,65.73
2023-04-24T10:30:19.000Z,66.79
2023-04-24T10:31:18.000Z,66.63
2023-04-24T10:32:19.000Z,66.60
2023-04-24T10:33:18.000Z,66.65
2023-04-24T10:34:20.000Z,66.36
2023-04-24T10:35:18.000Z,66.67
2023-04-24T10:36:21.000Z,67.28
2023-04-24T10:37:18.000Z,68.17
2023-04-24T10:38:24.000Z,70.37
2023-04-24T10:39:19.000Z,72.16
2023-04-24T10:40:29.000Z,72.76
2023-04-24T10:41:25.000Z,73.19
2023-04-24T10:42:17.000Z,75.00
2023-04-24T10:43:18.000Z,75.10
2023-04-24T10:44:21.000Z,75.25
2023-04-24T10:45:20.000Z,74.82
2023-04-24T10:46:20.000Z,74.47
2023-04-24T10:47:17.000Z,75.03
2023-04-24T10:48:17.000Z,75.59
2023-04-24T10:49:27.000Z,75.60
2023-04-24T10:50:18.000Z,76.19
2023-04-24T10:51:21.000Z,75.87
2023-04-24T10:52:18.000Z,76.15
2023-04-24T10:53:28.000Z,75.83
2023-04-24T10:54:36.000Z,75.93
2023-04-24T10:55:27.000Z,75.14
2023-04-24T10:56:17.000Z,75.38
2023-04-24T10:57:27.000Z,75.26
2023-04-24T10:58:21.000Z,75.43
2023-04-24T10:59:26.000Z,75.40
2023-04-24T11:00:19.000Z,75.68
2023-04-24T11:01:26.000Z,75.34
2023-04-24T11:02:32.000Z,74.98
2023-04-24T11:03:24.000Z,74.42
2023-04-24T11:04:29.000Z,73.86
2023-04-24T11:05:19.000Z,73.30
2023-04-24T11:06:45.000Z,72.93
2023-04-24T11:07:20.000Z,71.69
2023-04-24T11:08:27.000Z,72.51
2023-04-24T11:09:20.000Z,72.84
2023-04-24T11:10:25.000Z,72.71
2023-04-24T11:11:17.000Z,72.07
2023-04-24T11:12:18.000Z,72.02
2023-04-24T11:13:21.000Z,70.62
2023-04-24T11:14:17.000Z,70.83
2023-04-24T11:15:19.000Z,70.50
2023-04-24T11:16:28.000Z,70.19
2023-04-24T11:17:27.000Z,69.99
2023-04-24T11:18:17.000Z,70.57
2023-04-24T11:19:26.000Z,70.02
2023-04-24T11:20:17.000Z,70.56
2023-04-24T11:20:17.000Z,70.56
2023-04-24T11:21:17.000Z,69.17
2023-04-24T11:22:18.000Z,69.27
2023-04-24T11:23:18.000Z,67.78
2023-04-24T11:24:27.000Z,68.03
2023-04-24T11:25:17.000Z,68.19
2023-04-24T11:26:21.000Z,67.74
2023-04-24T11:27:21.000Z,67.28
2023-04-24T11:28:18.000Z,67.66
2023-04-24T11:29:19.000Z,68.05
2023-04-24T11:30:19.000Z,68.38
2023-04-24T11:31:27.000Z,68.18
2023-04-24T11:32:39.000Z,67.50
2023-04-24T11:33:19.000Z,67.45
2023-04-24T11:34:17.000Z,66.64
2023-04-24T11:35:21.000Z,67.03
2023-04-24T11:36:18.000Z,67.25
2023-04-24T11:37:18.000Z,67.30
2023-04-24T11:38:17.000Z,67.46
2023-04-24T11:39:17.000Z,66.18
2023-04-24T11:40:22.000Z,65.84
2023-04-24T11:41:17.000Z,65.89
2023-04-24T11:42:17.000Z,66.36
2023-04-24T11:43:20.000Z,66.81
2023-04-24T11:44:20.000Z,65.81
2023-04-24T11:45:23.000Z,65.16
2023-04-24T11:46:19.000Z,65.84
2023-04-24T11:47:17.000Z,64.84
2023-04-24T11:48:18.000Z,64.90
2023-04-24T11:49:17.000Z,65.20
2023-04-24T11:50:20.000Z,65.28
2023-04-24T11:51:17.000Z,65.74
2023-04-24T11:52:18.000Z,65.24
2023-04-24T11:53:21.000Z,64.02
2023-04-24T11:54:17.000Z,64.52
2023-04-24T11:55:28.000Z,65.29
2023-04-24T11:56:18.000Z,64.09
2023-04-24T11:57:21.000Z,64.65
2023-04-24T11:58:20.000Z,64.69
2023-04-24T11:59:18.000Z,64.02
2023-04-24T12:00:20.000Z,63.73
2023-04-24T12:01:17.000Z,64.07
2023-04-24T12:02:24.000Z,63.87
2023-04-24T12:03:17.000Z,63.51
2023-04-24T12:04:18.000Z,63.46
2023-04-24T12:05:22.000Z,64.04
2023-04-24T12:06:18.000Z,64.73
2023-04-24T12:07:17.000Z,64.68
2023-04-24T12:08:27.000Z,64.34
2023-04-24T12:09:17.000Z,63.52
2023-04-24T12:10:21.000Z,63.36
2023-04-24T12:11:17.000Z,63.15
2023-04-24T12:12:17.000Z,63.58
2023-04-24T12:13:17.000Z,63.47
2023-04-24T12:14:17.000Z,62.85
2023-04-24T12:15:19.000Z,63.32
2023-04-24T12:16:17.000Z,63.93
2023-04-24T12:17:27.000Z,63.25
2023-04-24T12:18:17.000Z,63.13
2023-04-24T12:19:20.000Z,62.13
2023-04-24T12:20:31.000Z,62.69
2023-04-24T12:21:19.000Z,63.45
2023-04-24T12:22:17.000Z,63.73
2023-04-24T12:23:28.000Z,62.99
2023-04-24T12:24:17.000Z,63.68
2023-04-24T12:25:18.000Z,64.15
2023-04-24T12:26:19.000Z,64.30
2023-04-24T12:27:19.000Z,64.40
2023-04-24T12:28:17.000Z,63.89
2023-04-24T12:29:20.000Z,63.48
2023-04-24T12:30:17.000Z,63.32
2023-04-24T12:31:20.000Z,63.74
2023-04-24T12:32:17.000Z,63.72
2023-04-24T12:33:20.000Z,64.25
2023-04-24T12:34:22.000Z,64.15
2023-04-24T12:35:22.000Z,62.73
2023-04-24T12:36:19.000Z,62.15
2023-04-24T12:37:17.000Z,61.28
2023-04-24T12:38:21.000Z,61.26
2023-04-24T12:39:18.000Z,61.74
2023-04-24T12:40:19.000Z,61.87
2023-04-24T12:41:18.000Z,61.91
2023-04-24T12:42:25.000Z,60.93
2023-04-24T12:43:18.000Z,60.38
2023-04-24T12:44:17.000Z,61.17
2023-04-24T12:45:17.000Z,61.78
2023-04-24T12:46:17.000Z,61.81
2023-04-24T12:47:17.000Z,61.59
2023-04-24T12:48:17.000Z,61.15
2023-04-24T12:49:17.000Z,61.84
2023-04-24T12:50:17.000Z,61.30
2023-04-24T12:51:17.000Z,60.59